sensor_id;sensor_type;location;lat;lon;timestamp;temperature;humidity
20483;DHT22;10400;53.198;6.592;2022-12-10T00:01:21;0.00;99.90
20483;DHT22;10400;53.198;6.592;2022-12-10T00:03:47;-0.10;99.90
20483;DHT22;10400;53.198;6.592;2022-12-10T00:06:17;-0.10;99.90
20483;DHT22;10400;53.198;6.592;2022-12-10T00:08:43;-0.10;99.90
20483;DHT22;10400;53.198;6.592;2022-12-10T00:11:11;-0.10;99.90
20483;DHT22;10400;53.198;6.592;2022-12-10T00:13:37;-0.10;99.90
20483;DHT22;10400;53.198;6.592;2022-12-10T00:16:04;-0.10;99.90
20483;DHT22;10400;53.198;6.592;2022-12-10T00:18:31;0.00;99.90
20483;DHT22;10400;53.198;6.592;2022-12-10T00:20:57;0.00;99.90
20483;DHT22;10400;53.198;6.592;2022-12-10T00:23:22;0.00;99.90
20483;DHT22;10400;53.198;6.592;2022-12-10T00:25:48;-0.10;99.90
20483;DHT22;10400;53.198;6.592;2022-12-10T00:28:14;0.00;99.90
20483;DHT22;10400;53.198;6.592;2022-12-10T00:30:39;-0.10;99.90
20483;DHT22;10400;53.198;6.592;2022-12-10T00:33:05;-0.10;99.90
20483;DHT22;10400;53.198;6.592;2022-12-10T00:35:31;-0.20;99.90
20483;DHT22;10400;53.198;6.592;2022-12-10T00:37:59;-0.20;99.90
20483;DHT22;10400;53.198;6.592;2022-12-10T00:40:25;-0.20;99.90
20483;DHT22;10400;53.198;6.592;2022-12-10T00:42:51;-0.10;99.90
20483;DHT22;10400;53.198;6.592;2022-12-10T00:45:16;-0.10;99.90
20483;DHT22;10400;53.198;6.592;2022-12-10T00:47:42;-0.20;99.90
20483;DHT22;10400;53.198;6.592;2022-12-10T00:50:08;-0.20;99.90
20483;DHT22;10400;53.198;6.592;2022-12-10T00:52:33;-0.20;99.90
20483;DHT22;10400;53.198;6.592;2022-12-10T00:54:59;-0.20;99.90
20483;DHT22;10400;53.198;6.592;2022-12-10T00:57:24;-0.20;99.90
20483;DHT22;10400;53.198;6.592;2022-12-10T00:59:50;-0.20;99.90
20483;DHT22;10400;53.198;6.592;2022-12-10T01:02:16;-0.20;99.90
20483;DHT22;10400;53.198;6.592;2022-12-10T01:04:41;-0.20;99.90
20483;DHT22;10400;53.198;6.592;2022-12-10T01:07:07;-0.20;99.90
20483;DHT22;10400;53.198;6.592;2022-12-10T01:09:34;-0.20;99.90
20483;DHT22;10400;53.198;6.592;2022-12-10T01:12:02;-0.20;99.90
20483;DHT22;10400;53.198;6.592;2022-12-10T01:14:30;-0.20;99.90
20483;DHT22;10400;53.198;6.592;2022-12-10T01:17:01;-0.20;99.90
20483;DHT22;10400;53.198;6.592;2022-12-10T01:19:28;-0.20;99.90
20483;DHT22;10400;53.198;6.592;2022-12-10T01:21:56;-0.20;99.90
20483;DHT22;10400;53.198;6.592;2022-12-10T01:24:26;-0.20;99.90
20483;DHT22;10400;53.198;6.592;2022-12-10T01:26:52;-0.20;99.90
20483;DHT22;10400;53.198;6.592;2022-12-10T01:29:20;-0.20;99.90
20483;DHT22;10400;53.198;6.592;2022-12-10T01:31:45;-0.20;99.90
20483;DHT22;10400;53.198;6.592;2022-12-10T01:34:15;-0.30;99.90
20483;DHT22;10400;53.198;6.592;2022-12-10T01:36:42;-0.30;99.90
20483;DHT22;10400;53.198;6.592;2022-12-10T01:39:11;-0.30;99.90
20483;DHT22;10400;53.198;6.592;2022-12-10T01:41:40;-0.30;99.90
20483;DHT22;10400;53.198;6.592;2022-12-10T01:46:37;-0.20;99.90
20483;DHT22;10400;53.198;6.592;2022-12-10T01:49:06;-0.20;99.90
20483;DHT22;10400;53.198;6.592;2022-12-10T01:51:34;-0.20;99.90
20483;DHT22;10400;53.198;6.592;2022-12-10T01:54:01;-0.30;99.90
20483;DHT22;10400;53.198;6.592;2022-12-10T01:56:28;-0.30;99.90
20483;DHT22;10400;53.198;6.592;2022-12-10T01:58:55;-0.40;99.90
20483;DHT22;10400;53.198;6.592;2022-12-10T02:01:43;-0.40;99.90
20483;DHT22;10400;53.198;6.592;2022-12-10T02:07:06;-0.30;99.90
20483;DHT22;10400;53.198;6.592;2022-12-10T02:09:42;-0.40;99.90
20483;DHT22;10400;53.198;6.592;2022-12-10T02:12:37;-0.40;99.90
20483;DHT22;10400;53.198;6.592;2022-12-10T02:15:22;-0.40;99.90
20483;DHT22;10400;53.198;6.592;2022-12-10T02:17:57;-0.40;99.90
20483;DHT22;10400;53.198;6.592;2022-12-10T02:20:34;-0.30;99.90
20483;DHT22;10400;53.198;6.592;2022-12-10T02:23:05;-0.30;99.90
20483;DHT22;10400;53.198;6.592;2022-12-10T02:25:48;-0.40;99.90
20483;DHT22;10400;53.198;6.592;2022-12-10T02:31:02;-0.40;99.90
20483;DHT22;10400;53.198;6.592;2022-12-10T02:33:30;-0.40;99.90
20483;DHT22;10400;53.198;6.592;2022-12-10T02:35:57;-0.40;99.90
20483;DHT22;10400;53.198;6.592;2022-12-10T02:38:28;-0.30;99.90
20483;DHT22;10400;53.198;6.592;2022-12-10T02:40:58;-0.30;99.90
20483;DHT22;10400;53.198;6.592;2022-12-10T02:43:26;-0.30;99.90
20483;DHT22;10400;53.198;6.592;2022-12-10T02:45:54;-0.20;99.90
20483;DHT22;10400;53.198;6.592;2022-12-10T02:48:21;-0.30;99.90
20483;DHT22;10400;53.198;6.592;2022-12-10T02:50:47;-0.40;99.90
20483;DHT22;10400;53.198;6.592;2022-12-10T02:53:13;-0.40;99.90
20483;DHT22;10400;53.198;6.592;2022-12-10T02:58:44;-0.40;99.90
20483;DHT22;10400;53.198;6.592;2022-12-10T03:03:57;-0.50;99.90
20483;DHT22;10400;53.198;6.592;2022-12-10T03:06:38;-0.40;99.90
20483;DHT22;10400;53.198;6.592;2022-12-10T03:09:10;-0.40;99.90
20483;DHT22;10400;53.198;6.592;2022-12-10T03:11:39;-0.40;99.90
20483;DHT22;10400;53.198;6.592;2022-12-10T03:16:40;-0.60;99.90
20483;DHT22;10400;53.198;6.592;2022-12-10T03:19:11;-0.50;99.90
20483;DHT22;10400;53.198;6.592;2022-12-10T03:21:40;-0.50;99.90
20483;DHT22;10400;53.198;6.592;2022-12-10T03:24:08;-0.60;99.90
20483;DHT22;10400;53.198;6.592;2022-12-10T03:26:34;-0.60;99.90
20483;DHT22;10400;53.198;6.592;2022-12-10T03:29:06;-0.50;99.90
20483;DHT22;10400;53.198;6.592;2022-12-10T03:31:34;-0.60;99.90
20483;DHT22;10400;53.198;6.592;2022-12-10T03:34:02;-0.60;99.90
20483;DHT22;10400;53.198;6.592;2022-12-10T03:36:28;-0.60;99.90
20483;DHT22;10400;53.198;6.592;2022-12-10T03:38:55;-0.50;99.90
20483;DHT22;10400;53.198;6.592;2022-12-10T03:41:22;-0.60;99.90
20483;DHT22;10400;53.198;6.592;2022-12-10T03:43:58;-0.70;99.90
20483;DHT22;10400;53.198;6.592;2022-12-10T03:46:25;-0.70;99.90
20483;DHT22;10400;53.198;6.592;2022-12-10T03:48:52;-0.60;99.90
20483;DHT22;10400;53.198;6.592;2022-12-10T03:51:19;-0.70;99.90
20483;DHT22;10400;53.198;6.592;2022-12-10T03:53:45;-0.70;99.90
20483;DHT22;10400;53.198;6.592;2022-12-10T03:56:11;-0.60;99.90
20483;DHT22;10400;53.198;6.592;2022-12-10T03:58:37;-0.70;99.90
20483;DHT22;10400;53.198;6.592;2022-12-10T04:01:03;-0.70;99.90
20483;DHT22;10400;53.198;6.592;2022-12-10T04:03:29;-0.70;99.90
20483;DHT22;10400;53.198;6.592;2022-12-10T04:06:01;-0.80;99.90
20483;DHT22;10400;53.198;6.592;2022-12-10T04:08:27;-0.70;99.90
20483;DHT22;10400;53.198;6.592;2022-12-10T04:10:52;-0.70;99.90
20483;DHT22;10400;53.198;6.592;2022-12-10T04:13:18;-0.70;99.90
20483;DHT22;10400;53.198;6.592;2022-12-10T04:16:02;-0.60;99.90
20483;DHT22;10400;53.198;6.592;2022-12-10T04:18:46;-0.70;99.90
20483;DHT22;10400;53.198;6.592;2022-12-10T04:21:12;-0.70;99.90
20483;DHT22;10400;53.198;6.592;2022-12-10T04:23:56;-0.70;99.90
20483;DHT22;10400;53.198;6.592;2022-12-10T04:26:40;-0.60;99.90
20483;DHT22;10400;53.198;6.592;2022-12-10T04:29:28;-0.70;99.90
20483;DHT22;10400;53.198;6.592;2022-12-10T04:31:55;-0.70;99.90
20483;DHT22;10400;53.198;6.592;2022-12-10T04:34:22;-0.80;99.90
20483;DHT22;10400;53.198;6.592;2022-12-10T04:36:48;-0.80;99.90
20483;DHT22;10400;53.198;6.592;2022-12-10T04:39:14;-0.90;99.90
20483;DHT22;10400;53.198;6.592;2022-12-10T04:41:41;-0.90;99.90
20483;DHT22;10400;53.198;6.592;2022-12-10T04:44:08;-0.90;99.90
20483;DHT22;10400;53.198;6.592;2022-12-10T04:46:33;-0.90;99.90
20483;DHT22;10400;53.198;6.592;2022-12-10T04:48:59;-0.90;99.90
20483;DHT22;10400;53.198;6.592;2022-12-10T04:51:25;-1.00;99.90
20483;DHT22;10400;53.198;6.592;2022-12-10T04:53:51;-0.90;99.90
20483;DHT22;10400;53.198;6.592;2022-12-10T04:56:16;-1.00;99.90
20483;DHT22;10400;53.198;6.592;2022-12-10T04:58:42;-1.00;99.90
20483;DHT22;10400;53.198;6.592;2022-12-10T05:01:10;-1.00;99.90
20483;DHT22;10400;53.198;6.592;2022-12-10T05:03:36;-0.90;99.90
20483;DHT22;10400;53.198;6.592;2022-12-10T05:06:08;-1.00;99.90
20483;DHT22;10400;53.198;6.592;2022-12-10T05:08:35;-0.90;99.90
20483;DHT22;10400;53.198;6.592;2022-12-10T05:11:12;-0.90;99.90
20483;DHT22;10400;53.198;6.592;2022-12-10T05:13:39;-0.80;99.90
20483;DHT22;10400;53.198;6.592;2022-12-10T05:16:06;-0.80;99.90
20483;DHT22;10400;53.198;6.592;2022-12-10T05:18:33;-0.80;99.90
20483;DHT22;10400;53.198;6.592;2022-12-10T05:21:07;-0.70;99.90
20483;DHT22;10400;53.198;6.592;2022-12-10T05:23:36;-0.70;99.90
20483;DHT22;10400;53.198;6.592;2022-12-10T05:28:42;-0.70;99.90
20483;DHT22;10400;53.198;6.592;2022-12-10T05:31:29;-0.70;99.90
20483;DHT22;10400;53.198;6.592;2022-12-10T05:33:56;-0.50;99.90
20483;DHT22;10400;53.198;6.592;2022-12-10T05:36:27;-0.50;99.90
20483;DHT22;10400;53.198;6.592;2022-12-10T05:38:54;-0.50;99.90
20483;DHT22;10400;53.198;6.592;2022-12-10T05:41:33;-0.50;99.90
20483;DHT22;10400;53.198;6.592;2022-12-10T05:43:59;-0.50;99.90
20483;DHT22;10400;53.198;6.592;2022-12-10T05:46:29;-0.40;99.90
20483;DHT22;10400;53.198;6.592;2022-12-10T05:48:55;-0.40;99.90
20483;DHT22;10400;53.198;6.592;2022-12-10T05:51:23;-0.50;99.90
20483;DHT22;10400;53.198;6.592;2022-12-10T05:53:50;-0.50;99.90
20483;DHT22;10400;53.198;6.592;2022-12-10T05:56:18;-0.50;99.90
20483;DHT22;10400;53.198;6.592;2022-12-10T05:58:46;-0.50;99.90
20483;DHT22;10400;53.198;6.592;2022-12-10T06:01:17;-0.50;99.90
20483;DHT22;10400;53.198;6.592;2022-12-10T06:03:43;-0.50;99.90
20483;DHT22;10400;53.198;6.592;2022-12-10T06:06:08;-0.50;99.90
20483;DHT22;10400;53.198;6.592;2022-12-10T06:08:35;-0.50;99.90
20483;DHT22;10400;53.198;6.592;2022-12-10T06:11:06;-0.50;99.90
20483;DHT22;10400;53.198;6.592;2022-12-10T06:13:32;-0.40;99.90
20483;DHT22;10400;53.198;6.592;2022-12-10T06:15:58;-0.40;99.90
20483;DHT22;10400;53.198;6.592;2022-12-10T06:18:23;-0.40;99.90
20483;DHT22;10400;53.198;6.592;2022-12-10T06:20:49;-0.40;99.90
20483;DHT22;10400;53.198;6.592;2022-12-10T06:23:15;-0.50;99.90
20483;DHT22;10400;53.198;6.592;2022-12-10T06:25:41;-0.40;99.90
20483;DHT22;10400;53.198;6.592;2022-12-10T06:28:07;-0.40;99.90
20483;DHT22;10400;53.198;6.592;2022-12-10T06:30:34;-0.40;99.90
20483;DHT22;10400;53.198;6.592;2022-12-10T06:33:00;-0.30;99.90
20483;DHT22;10400;53.198;6.592;2022-12-10T06:35:26;-0.30;99.90
20483;DHT22;10400;53.198;6.592;2022-12-10T06:37:52;-0.40;99.90
20483;DHT22;10400;53.198;6.592;2022-12-10T06:40:18;-0.40;99.90
20483;DHT22;10400;53.198;6.592;2022-12-10T06:42:44;-0.40;99.90
20483;DHT22;10400;53.198;6.592;2022-12-10T06:45:10;-0.40;99.90
20483;DHT22;10400;53.198;6.592;2022-12-10T06:47:36;-0.40;99.90
20483;DHT22;10400;53.198;6.592;2022-12-10T06:50:02;-0.30;99.90
20483;DHT22;10400;53.198;6.592;2022-12-10T06:52:27;-0.30;99.90
20483;DHT22;10400;53.198;6.592;2022-12-10T06:54:53;-0.40;99.90
20483;DHT22;10400;53.198;6.592;2022-12-10T06:57:21;-0.40;99.90
20483;DHT22;10400;53.198;6.592;2022-12-10T06:59:47;-0.50;99.90
20483;DHT22;10400;53.198;6.592;2022-12-10T07:02:12;-0.50;99.90
20483;DHT22;10400;53.198;6.592;2022-12-10T07:04:38;-0.40;99.90
20483;DHT22;10400;53.198;6.592;2022-12-10T07:07:05;-0.40;99.90
20483;DHT22;10400;53.198;6.592;2022-12-10T07:09:32;-0.50;99.90
20483;DHT22;10400;53.198;6.592;2022-12-10T07:11:57;-0.40;99.90
20483;DHT22;10400;53.198;6.592;2022-12-10T07:14:23;-0.50;99.90
20483;DHT22;10400;53.198;6.592;2022-12-10T07:16:49;-0.50;99.90
20483;DHT22;10400;53.198;6.592;2022-12-10T07:19:14;-0.40;99.90
20483;DHT22;10400;53.198;6.592;2022-12-10T07:21:41;-0.50;99.90
20483;DHT22;10400;53.198;6.592;2022-12-10T07:24:10;-0.50;99.90
20483;DHT22;10400;53.198;6.592;2022-12-10T07:26:38;-0.50;99.90
20483;DHT22;10400;53.198;6.592;2022-12-10T07:29:06;-0.50;99.90
20483;DHT22;10400;53.198;6.592;2022-12-10T07:31:33;-0.60;99.90
20483;DHT22;10400;53.198;6.592;2022-12-10T07:33:59;-0.60;99.90
20483;DHT22;10400;53.198;6.592;2022-12-10T07:36:25;-0.50;99.90
20483;DHT22;10400;53.198;6.592;2022-12-10T07:38:52;-0.60;99.90
20483;DHT22;10400;53.198;6.592;2022-12-10T07:41:18;-0.50;99.90
20483;DHT22;10400;53.198;6.592;2022-12-10T07:43:45;-0.60;99.90
20483;DHT22;10400;53.198;6.592;2022-12-10T07:46:15;-0.50;99.90
20483;DHT22;10400;53.198;6.592;2022-12-10T07:48:41;-0.50;99.90
20483;DHT22;10400;53.198;6.592;2022-12-10T07:51:07;-0.60;99.90
20483;DHT22;10400;53.198;6.592;2022-12-10T07:53:34;-0.50;99.90
20483;DHT22;10400;53.198;6.592;2022-12-10T07:56:00;-0.60;99.90
20483;DHT22;10400;53.198;6.592;2022-12-10T07:58:26;-0.50;99.90
20483;DHT22;10400;53.198;6.592;2022-12-10T08:00:52;-0.60;99.90
20483;DHT22;10400;53.198;6.592;2022-12-10T08:03:18;-0.70;99.90
20483;DHT22;10400;53.198;6.592;2022-12-10T08:05:43;-0.60;99.90
20483;DHT22;10400;53.198;6.592;2022-12-10T08:08:09;-0.60;99.90
20483;DHT22;10400;53.198;6.592;2022-12-10T08:10:36;-0.60;99.90
20483;DHT22;10400;53.198;6.592;2022-12-10T08:13:03;-0.70;99.90
20483;DHT22;10400;53.198;6.592;2022-12-10T08:15:30;-0.70;99.90
20483;DHT22;10400;53.198;6.592;2022-12-10T08:17:56;-0.70;99.90
20483;DHT22;10400;53.198;6.592;2022-12-10T08:20:23;-0.70;99.90
20483;DHT22;10400;53.198;6.592;2022-12-10T08:22:50;-0.80;99.90
20483;DHT22;10400;53.198;6.592;2022-12-10T08:25:15;-0.80;99.90
20483;DHT22;10400;53.198;6.592;2022-12-10T08:27:41;-0.70;99.90
20483;DHT22;10400;53.198;6.592;2022-12-10T08:30:07;-0.70;99.90
20483;DHT22;10400;53.198;6.592;2022-12-10T08:32:33;-0.60;99.90
20483;DHT22;10400;53.198;6.592;2022-12-10T08:34:59;-0.60;99.90
20483;DHT22;10400;53.198;6.592;2022-12-10T08:37:24;-0.70;99.90
20483;DHT22;10400;53.198;6.592;2022-12-10T08:39:51;-0.80;99.90
20483;DHT22;10400;53.198;6.592;2022-12-10T08:42:17;-0.70;99.90
20483;DHT22;10400;53.198;6.592;2022-12-10T08:44:42;-0.70;99.90
20483;DHT22;10400;53.198;6.592;2022-12-10T08:47:08;-0.70;99.90
20483;DHT22;10400;53.198;6.592;2022-12-10T08:49:34;-0.80;99.90
20483;DHT22;10400;53.198;6.592;2022-12-10T08:51:59;-0.70;99.90
20483;DHT22;10400;53.198;6.592;2022-12-10T08:54:25;-0.70;99.90
20483;DHT22;10400;53.198;6.592;2022-12-10T08:56:50;-0.70;99.90
20483;DHT22;10400;53.198;6.592;2022-12-10T08:59:16;-0.80;99.90
20483;DHT22;10400;53.198;6.592;2022-12-10T09:01:42;-0.80;99.90
20483;DHT22;10400;53.198;6.592;2022-12-10T09:04:07;-0.70;99.90
20483;DHT22;10400;53.198;6.592;2022-12-10T09:06:33;-0.70;99.90
20483;DHT22;10400;53.198;6.592;2022-12-10T09:08:59;-0.60;99.90
20483;DHT22;10400;53.198;6.592;2022-12-10T09:11:28;-0.60;99.90
20483;DHT22;10400;53.198;6.592;2022-12-10T09:13:57;-0.60;99.90
20483;DHT22;10400;53.198;6.592;2022-12-10T09:16:28;-0.60;99.90
20483;DHT22;10400;53.198;6.592;2022-12-10T09:18:54;-0.50;99.90
20483;DHT22;10400;53.198;6.592;2022-12-10T09:21:20;-0.60;99.90
20483;DHT22;10400;53.198;6.592;2022-12-10T09:23:46;-0.60;99.90
20483;DHT22;10400;53.198;6.592;2022-12-10T09:26:14;-0.50;99.90
20483;DHT22;10400;53.198;6.592;2022-12-10T09:28:40;-0.60;99.90
20483;DHT22;10400;53.198;6.592;2022-12-10T09:31:07;-0.60;99.90
20483;DHT22;10400;53.198;6.592;2022-12-10T09:33:34;-0.60;99.90
20483;DHT22;10400;53.198;6.592;2022-12-10T09:36:01;-0.60;99.90
20483;DHT22;10400;53.198;6.592;2022-12-10T09:38:27;-0.60;99.90
20483;DHT22;10400;53.198;6.592;2022-12-10T09:44:21;-0.50;99.90
20483;DHT22;10400;53.198;6.592;2022-12-10T09:46:55;-0.50;99.90
20483;DHT22;10400;53.198;6.592;2022-12-10T09:49:26;-0.40;99.90
20483;DHT22;10400;53.198;6.592;2022-12-10T09:51:58;-0.40;99.90
20483;DHT22;10400;53.198;6.592;2022-12-10T09:54:28;-0.30;99.90
20483;DHT22;10400;53.198;6.592;2022-12-10T09:56:55;-0.30;99.90
20483;DHT22;10400;53.198;6.592;2022-12-10T09:59:32;-0.20;99.90
20483;DHT22;10400;53.198;6.592;2022-12-10T10:04:48;-0.30;99.90
20483;DHT22;10400;53.198;6.592;2022-12-10T10:07:28;-0.20;99.90
20483;DHT22;10400;53.198;6.592;2022-12-10T10:10:03;-0.30;99.90
20483;DHT22;10400;53.198;6.592;2022-12-10T10:12:30;-0.30;99.90
20483;DHT22;10400;53.198;6.592;2022-12-10T10:14:57;-0.30;99.90
20483;DHT22;10400;53.198;6.592;2022-12-10T10:17:36;-0.30;99.90
20483;DHT22;10400;53.198;6.592;2022-12-10T10:20:04;-0.30;99.90
20483;DHT22;10400;53.198;6.592;2022-12-10T10:22:30;-0.30;99.90
20483;DHT22;10400;53.198;6.592;2022-12-10T10:24:56;-0.20;99.90
20483;DHT22;10400;53.198;6.592;2022-12-10T10:27:24;-0.10;99.90
20483;DHT22;10400;53.198;6.592;2022-12-10T10:29:55;0.00;99.90
20483;DHT22;10400;53.198;6.592;2022-12-10T10:32:24;-0.10;99.90
20483;DHT22;10400;53.198;6.592;2022-12-10T10:34:55;0.00;99.90
20483;DHT22;10400;53.198;6.592;2022-12-10T10:37:31;0.00;99.90
20483;DHT22;10400;53.198;6.592;2022-12-10T10:40:05;0.10;99.90
20483;DHT22;10400;53.198;6.592;2022-12-10T10:42:38;0.20;99.90
20483;DHT22;10400;53.198;6.592;2022-12-10T10:48:08;0.10;99.90
20483;DHT22;10400;53.198;6.592;2022-12-10T10:50:46;0.20;99.90
20483;DHT22;10400;53.198;6.592;2022-12-10T10:53:33;0.30;99.90
20483;DHT22;10400;53.198;6.592;2022-12-10T10:56:22;0.30;99.90
20483;DHT22;10400;53.198;6.592;2022-12-10T11:01:49;0.30;99.90
20483;DHT22;10400;53.198;6.592;2022-12-10T11:04:17;0.40;99.90
20483;DHT22;10400;53.198;6.592;2022-12-10T11:06:44;0.40;99.90
20483;DHT22;10400;53.198;6.592;2022-12-10T11:09:26;0.50;99.90
20483;DHT22;10400;53.198;6.592;2022-12-10T11:12:39;0.40;99.90
20483;DHT22;10400;53.198;6.592;2022-12-10T11:15:30;0.30;99.90
20483;DHT22;10400;53.198;6.592;2022-12-10T11:17:56;0.50;99.90
20483;DHT22;10400;53.198;6.592;2022-12-10T11:20:28;0.40;99.90
20483;DHT22;10400;53.198;6.592;2022-12-10T11:22:59;0.50;99.90
20483;DHT22;10400;53.198;6.592;2022-12-10T11:25:52;0.50;99.90
20483;DHT22;10400;53.198;6.592;2022-12-10T11:28:40;0.50;99.90
20483;DHT22;10400;53.198;6.592;2022-12-10T11:34:15;0.40;99.90
20483;DHT22;10400;53.198;6.592;2022-12-10T11:40:02;0.40;99.90
20483;DHT22;10400;53.198;6.592;2022-12-10T11:45:26;0.40;99.90
20483;DHT22;10400;53.198;6.592;2022-12-10T11:53:48;0.50;99.90
20483;DHT22;10400;53.198;6.592;2022-12-10T11:56:40;0.50;99.90
20483;DHT22;10400;53.198;6.592;2022-12-10T12:14:54;0.70;99.90
20483;DHT22;10400;53.198;6.592;2022-12-10T12:17:35;0.60;99.90
20483;DHT22;10400;53.198;6.592;2022-12-10T12:22:45;0.60;99.90
20483;DHT22;10400;53.198;6.592;2022-12-10T12:25:26;0.60;99.90
20483;DHT22;10400;53.198;6.592;2022-12-10T12:28:00;0.60;99.90
20483;DHT22;10400;53.198;6.592;2022-12-10T12:30:31;0.60;99.90
20483;DHT22;10400;53.198;6.592;2022-12-10T12:33:04;0.70;99.90
20483;DHT22;10400;53.198;6.592;2022-12-10T12:35:48;0.80;99.90
20483;DHT22;10400;53.198;6.592;2022-12-10T12:38:30;0.80;99.90
20483;DHT22;10400;53.198;6.592;2022-12-10T12:41:15;0.90;99.90
20483;DHT22;10400;53.198;6.592;2022-12-10T12:43:55;0.90;99.90
20483;DHT22;10400;53.198;6.592;2022-12-10T12:46:44;0.70;99.90
20483;DHT22;10400;53.198;6.592;2022-12-10T12:54:24;0.80;99.90
20483;DHT22;10400;53.198;6.592;2022-12-10T12:57:08;0.80;99.90
20483;DHT22;10400;53.198;6.592;2022-12-10T13:00:10;0.70;99.90
20483;DHT22;10400;53.198;6.592;2022-12-10T13:05:35;0.50;99.90
20483;DHT22;10400;53.198;6.592;2022-12-10T13:13:33;0.70;99.90
20483;DHT22;10400;53.198;6.592;2022-12-10T13:16:34;0.70;99.90
20483;DHT22;10400;53.198;6.592;2022-12-10T13:19:25;0.70;99.90
20483;DHT22;10400;53.198;6.592;2022-12-10T13:22:11;0.70;99.90
20483;DHT22;10400;53.198;6.592;2022-12-10T13:27:32;0.70;99.90
20483;DHT22;10400;53.198;6.592;2022-12-10T13:30:35;0.70;99.90
20483;DHT22;10400;53.198;6.592;2022-12-10T13:33:20;0.80;99.90
20483;DHT22;10400;53.198;6.592;2022-12-10T13:35:58;0.80;99.90
20483;DHT22;10400;53.198;6.592;2022-12-10T13:38:26;0.80;99.90
20483;DHT22;10400;53.198;6.592;2022-12-10T13:41:04;0.80;99.90
20483;DHT22;10400;53.198;6.592;2022-12-10T13:43:57;0.70;99.90
20483;DHT22;10400;53.198;6.592;2022-12-10T13:49:22;0.70;99.90
20483;DHT22;10400;53.198;6.592;2022-12-10T13:51:54;0.80;99.90
20483;DHT22;10400;53.198;6.592;2022-12-10T14:00:03;0.80;99.90
20483;DHT22;10400;53.198;6.592;2022-12-10T14:03:15;0.80;99.90
20483;DHT22;10400;53.198;6.592;2022-12-10T14:06:01;0.80;99.90
20483;DHT22;10400;53.198;6.592;2022-12-10T14:08:35;0.90;99.90
20483;DHT22;10400;53.198;6.592;2022-12-10T14:11:05;0.80;99.90
20483;DHT22;10400;53.198;6.592;2022-12-10T14:13:44;0.80;99.90
20483;DHT22;10400;53.198;6.592;2022-12-10T14:16:14;0.90;99.90
20483;DHT22;10400;53.198;6.592;2022-12-10T14:18:45;0.80;99.90
20483;DHT22;10400;53.198;6.592;2022-12-10T14:21:15;0.80;99.90
20483;DHT22;10400;53.198;6.592;2022-12-10T14:23:46;0.80;99.90
20483;DHT22;10400;53.198;6.592;2022-12-10T14:26:22;0.70;99.90
20483;DHT22;10400;53.198;6.592;2022-12-10T14:28:55;0.80;99.90
20483;DHT22;10400;53.198;6.592;2022-12-10T14:31:39;0.80;99.90
20483;DHT22;10400;53.198;6.592;2022-12-10T14:34:07;0.80;99.90
20483;DHT22;10400;53.198;6.592;2022-12-10T14:36:38;0.90;99.90
20483;DHT22;10400;53.198;6.592;2022-12-10T14:39:14;0.80;99.90
20483;DHT22;10400;53.198;6.592;2022-12-10T14:41:40;0.90;99.90
20483;DHT22;10400;53.198;6.592;2022-12-10T14:44:06;0.90;99.90
20483;DHT22;10400;53.198;6.592;2022-12-10T14:46:33;0.90;99.90
20483;DHT22;10400;53.198;6.592;2022-12-10T14:48:59;0.90;99.90
20483;DHT22;10400;53.198;6.592;2022-12-10T14:51:31;0.90;99.90
20483;DHT22;10400;53.198;6.592;2022-12-10T14:53:58;0.80;99.90
20483;DHT22;10400;53.198;6.592;2022-12-10T14:59:04;0.90;99.90
20483;DHT22;10400;53.198;6.592;2022-12-10T15:01:47;0.90;99.90
20483;DHT22;10400;53.198;6.592;2022-12-10T15:04:19;0.90;99.90
20483;DHT22;10400;53.198;6.592;2022-12-10T15:06:46;0.90;99.90
20483;DHT22;10400;53.198;6.592;2022-12-10T15:09:19;0.90;99.90
20483;DHT22;10400;53.198;6.592;2022-12-10T15:11:45;1.00;99.90
20483;DHT22;10400;53.198;6.592;2022-12-10T15:14:19;1.00;99.90
20483;DHT22;10400;53.198;6.592;2022-12-10T15:16:46;0.90;99.90
20483;DHT22;10400;53.198;6.592;2022-12-10T15:21:43;1.00;99.90
20483;DHT22;10400;53.198;6.592;2022-12-10T15:26:52;1.00;99.90
20483;DHT22;10400;53.198;6.592;2022-12-10T15:35:00;0.90;99.90
20483;DHT22;10400;53.198;6.592;2022-12-10T15:37:35;0.90;99.90
20483;DHT22;10400;53.198;6.592;2022-12-10T15:40:06;0.90;99.90
20483;DHT22;10400;53.198;6.592;2022-12-10T15:42:43;1.00;99.90
20483;DHT22;10400;53.198;6.592;2022-12-10T15:45:23;1.00;99.90
20483;DHT22;10400;53.198;6.592;2022-12-10T15:47:51;1.00;99.90
20483;DHT22;10400;53.198;6.592;2022-12-10T15:50:18;0.90;99.90
20483;DHT22;10400;53.198;6.592;2022-12-10T15:52:44;0.80;99.90
20483;DHT22;10400;53.198;6.592;2022-12-10T15:55:11;0.80;99.90
20483;DHT22;10400;53.198;6.592;2022-12-10T15:57:39;0.80;99.90
20483;DHT22;10400;53.198;6.592;2022-12-10T16:00:20;0.80;99.90
20483;DHT22;10400;53.198;6.592;2022-12-10T16:02:53;0.80;99.90
20483;DHT22;10400;53.198;6.592;2022-12-10T16:05:27;0.80;99.90
20483;DHT22;10400;53.198;6.592;2022-12-10T16:08:05;0.80;99.90
20483;DHT22;10400;53.198;6.592;2022-12-10T16:10:32;0.90;99.90
20483;DHT22;10400;53.198;6.592;2022-12-10T16:12:59;0.90;99.90
20483;DHT22;10400;53.198;6.592;2022-12-10T16:15:27;0.90;99.90
20483;DHT22;10400;53.198;6.592;2022-12-10T16:17:53;0.90;99.90
20483;DHT22;10400;53.198;6.592;2022-12-10T16:22:45;0.90;99.90
20483;DHT22;10400;53.198;6.592;2022-12-10T16:25:11;1.00;99.90
20483;DHT22;10400;53.198;6.592;2022-12-10T16:27:36;0.90;99.90
20483;DHT22;10400;53.198;6.592;2022-12-10T16:30:28;1.00;99.90
20483;DHT22;10400;53.198;6.592;2022-12-10T16:32:54;1.00;99.90
20483;DHT22;10400;53.198;6.592;2022-12-10T16:35:21;0.90;99.90
20483;DHT22;10400;53.198;6.592;2022-12-10T16:37:48;1.00;99.90
20483;DHT22;10400;53.198;6.592;2022-12-10T16:40:23;1.00;99.90
20483;DHT22;10400;53.198;6.592;2022-12-10T16:42:49;1.00;99.90
20483;DHT22;10400;53.198;6.592;2022-12-10T16:45:27;1.00;99.90
20483;DHT22;10400;53.198;6.592;2022-12-10T16:47:53;1.00;99.90
20483;DHT22;10400;53.198;6.592;2022-12-10T16:50:19;1.10;99.90
20483;DHT22;10400;53.198;6.592;2022-12-10T16:52:45;1.00;99.90
20483;DHT22;10400;53.198;6.592;2022-12-10T16:55:17;1.00;99.90
20483;DHT22;10400;53.198;6.592;2022-12-10T16:57:43;1.00;99.90
20483;DHT22;10400;53.198;6.592;2022-12-10T17:00:12;1.00;99.90
20483;DHT22;10400;53.198;6.592;2022-12-10T17:02:39;0.90;99.90
20483;DHT22;10400;53.198;6.592;2022-12-10T17:05:14;0.90;99.90
20483;DHT22;10400;53.198;6.592;2022-12-10T17:07:40;0.90;99.90
20483;DHT22;10400;53.198;6.592;2022-12-10T17:10:06;0.90;99.90
20483;DHT22;10400;53.198;6.592;2022-12-10T17:12:31;0.90;99.90
20483;DHT22;10400;53.198;6.592;2022-12-10T17:14:58;1.00;99.90
20483;DHT22;10400;53.198;6.592;2022-12-10T17:17:24;1.10;99.90
20483;DHT22;10400;53.198;6.592;2022-12-10T17:19:50;1.00;99.90
20483;DHT22;10400;53.198;6.592;2022-12-10T17:22:15;1.00;99.90
20483;DHT22;10400;53.198;6.592;2022-12-10T17:24:41;1.00;99.90
20483;DHT22;10400;53.198;6.592;2022-12-10T17:27:12;1.00;99.90
20483;DHT22;10400;53.198;6.592;2022-12-10T17:29:41;0.90;99.90
20483;DHT22;10400;53.198;6.592;2022-12-10T17:32:12;1.00;99.90
20483;DHT22;10400;53.198;6.592;2022-12-10T17:34:39;0.90;99.90
20483;DHT22;10400;53.198;6.592;2022-12-10T17:37:10;0.90;99.90
20483;DHT22;10400;53.198;6.592;2022-12-10T17:39:36;0.90;99.90
20483;DHT22;10400;53.198;6.592;2022-12-10T17:42:01;0.90;99.90